createdAt,value
2018-03-22T00:02:23.045Z,26.43
2018-03-22T00:04:50.094Z,30.77
2018-03-22T00:07:16.315Z,26.60
2018-03-22T00:09:42.578Z,28.10
2018-03-22T00:12:08.827Z,28.13
2018-03-22T00:14:35.118Z,31.03
2018-03-22T00:17:01.430Z,31.80
2018-03-22T00:19:27.702Z,38.97
2018-03-22T00:21:53.959Z,32.07
2018-03-22T00:24:20.234Z,25.90
2018-03-22T00:26:47.208Z,25.20
2018-03-22T00:29:13.410Z,25.37
2018-03-22T00:31:39.766Z,27.10
2018-03-22T00:34:06.054Z,21.03
2018-03-22T00:36:32.344Z,21.00
2018-03-22T00:38:58.594Z,26.87
2018-03-22T00:41:24.892Z,26.17
2018-03-22T00:43:51.147Z,27.50
2018-03-22T00:46:17.454Z,27.33
2018-03-22T00:48:43.743Z,26.00
2018-03-22T00:51:10.016Z,27.10
2018-03-22T00:53:36.962Z,17.00
2018-03-22T00:56:03.275Z,20.03
2018-03-22T00:58:29.524Z,21.43
2018-03-22T01:00:55.791Z,14.93
2018-03-22T01:03:22.786Z,23.30
2018-03-22T01:05:49.026Z,17.70
2018-03-22T01:08:15.260Z,23.93
2018-03-22T01:10:41.607Z,22.13
2018-03-22T01:13:08.059Z,31.50
2018-03-22T01:15:34.350Z,19.40
2018-03-22T01:18:00.634Z,20.50
2018-03-22T01:20:26.860Z,25.33
2018-03-22T01:22:53.884Z,20.60
2018-03-22T01:25:20.138Z,23.87
2018-03-22T01:27:46.365Z,22.17
2018-03-22T01:30:24.731Z,26.00
2018-03-22T01:32:51.719Z,18.83
2018-03-22T01:35:18.026Z,17.57
2018-03-22T01:37:44.314Z,25.17
2018-03-22T01:40:10.614Z,18.53
2018-03-22T01:42:37.645Z,18.50
2018-03-22T01:45:03.886Z,30.10
2018-03-22T01:47:36.188Z,21.40
2018-03-22T01:50:02.490Z,19.70
2018-03-22T01:52:28.744Z,21.17
2018-03-22T01:54:55.062Z,21.63
2018-03-22T01:57:21.345Z,21.53
2018-03-22T01:59:47.696Z,20.97
2018-03-22T02:02:13.958Z,21.20
2018-03-22T02:04:40.240Z,21.53
2018-03-22T02:07:06.458Z,18.13
2018-03-22T02:09:32.725Z,22.97
2018-03-22T02:11:58.955Z,21.83
2018-03-22T02:14:25.201Z,20.00
2018-03-22T02:16:51.418Z,19.33
2018-03-22T02:19:17.745Z,17.07
2018-03-22T02:21:43.974Z,19.23
2018-03-22T02:24:10.234Z,23.27
2018-03-22T02:26:36.500Z,17.33
2018-03-22T02:29:02.760Z,19.37
2018-03-22T02:31:29.101Z,18.27
2018-03-22T02:33:55.392Z,21.37
2018-03-22T02:36:21.710Z,15.37
2018-03-22T02:38:48.735Z,14.83
2018-03-22T02:41:15.210Z,21.30
2018-03-22T02:43:41.446Z,24.93
2018-03-22T02:46:07.691Z,16.17
2018-03-22T02:48:33.948Z,16.03
2018-03-22T02:51:00.198Z,13.87
2018-03-22T02:53:26.441Z,19.20
2018-03-22T02:55:52.671Z,17.40
2018-03-22T02:58:18.940Z,11.30
2018-03-22T03:00:45.515Z,11.13
2018-03-22T03:03:11.777Z,15.00
2018-03-22T03:05:38.060Z,14.67
2018-03-22T03:08:05.097Z,12.30
2018-03-22T03:10:31.405Z,11.30
2018-03-22T03:12:57.598Z,15.17
2018-03-22T03:15:23.825Z,15.57
2018-03-22T03:17:50.105Z,14.87
2018-03-22T03:20:17.127Z,16.03
2018-03-22T03:22:43.366Z,18.10
2018-03-22T03:25:09.606Z,19.27
2018-03-22T03:27:35.859Z,22.87
2018-03-22T03:30:02.086Z,12.87
2018-03-22T03:32:28.294Z,14.00
2018-03-22T03:34:54.531Z,21.20
2018-03-22T03:37:21.235Z,14.70
2018-03-22T03:39:47.585Z,17.53
2018-03-22T03:42:13.857Z,16.90
2018-03-22T03:44:53.273Z,18.37
2018-03-22T03:47:19.657Z,17.57
2018-03-22T03:49:46.311Z,21.00
2018-03-22T03:52:25.640Z,18.70
2018-03-22T03:54:54.385Z,19.20
2018-03-22T03:57:20.642Z,18.20
2018-03-22T03:59:46.847Z,17.23
2018-03-22T04:02:13.101Z,17.53
2018-03-22T04:04:39.366Z,16.13
2018-03-22T04:07:05.681Z,15.53
2018-03-22T04:09:31.938Z,20.90
2018-03-22T04:11:58.224Z,17.27
2018-03-22T04:14:24.435Z,18.63
2018-03-22T04:16:50.877Z,19.57
2018-03-22T04:19:17.473Z,20.27
2018-03-22T04:21:44.541Z,22.87
2018-03-22T04:24:11.741Z,16.07
2018-03-22T04:26:38.106Z,17.07
2018-03-22T04:29:04.767Z,16.70
2018-03-22T04:31:31.817Z,18.63
2018-03-22T04:33:58.152Z,18.43
2018-03-22T04:36:24.431Z,20.10
2018-03-22T04:38:51.458Z,16.63
2018-03-22T04:41:18.647Z,17.30
2018-03-22T04:43:46.598Z,19.03
2018-03-22T04:46:12.922Z,17.77
2018-03-22T04:48:39.208Z,12.83
2018-03-22T04:51:05.422Z,20.30
2018-03-22T04:53:31.735Z,18.70
2018-03-22T04:55:58.005Z,24.73
2018-03-22T04:58:24.282Z,14.83
2018-03-22T05:00:51.373Z,15.63
2018-03-22T05:03:17.680Z,11.17
2018-03-22T05:05:49.910Z,18.70
2018-03-22T05:08:16.158Z,13.50
2018-03-22T05:10:42.461Z,14.03
2018-03-22T05:13:09.577Z,16.43
2018-03-22T05:15:35.838Z,12.23
2018-03-22T05:18:02.077Z,18.20
2018-03-22T05:20:28.447Z,17.93
2018-03-22T05:22:54.834Z,12.67
2018-03-22T05:25:21.287Z,15.40
2018-03-22T05:27:47.540Z,17.27
2018-03-22T05:30:13.759Z,17.73
2018-03-22T05:32:40.106Z,14.90
2018-03-22T05:35:06.456Z,12.60
2018-03-22T05:37:32.721Z,12.63
2018-03-22T05:39:58.978Z,12.53
2018-03-22T05:42:25.321Z,20.97
2018-03-22T05:44:51.515Z,14.67
2018-03-22T05:47:17.810Z,13.13
2018-03-22T05:49:44.136Z,15.17
2018-03-22T05:52:10.334Z,17.10
2018-03-22T05:54:36.564Z,12.03
2018-03-22T05:57:03.683Z,13.10
2018-03-22T05:59:29.969Z,23.10
2018-03-22T06:01:56.194Z,12.13
2018-03-22T06:04:22.431Z,13.93
2018-03-22T06:06:48.753Z,15.07
2018-03-22T06:09:15.143Z,13.53
2018-03-22T06:11:41.421Z,12.30
2018-03-22T06:14:07.682Z,42.13
2018-03-22T06:16:37.769Z,16.80
2018-03-22T06:19:04.115Z,14.60
2018-03-22T06:21:30.393Z,11.03
2018-03-22T06:23:56.616Z,20.57
2018-03-22T06:26:22.820Z,10.20
2018-03-22T06:28:49.024Z,18.33
2018-03-22T06:31:25.474Z,17.30
2018-03-22T06:33:51.706Z,11.13
2018-03-22T06:36:17.956Z,16.73
2018-03-22T06:38:44.229Z,11.63
2018-03-22T06:41:10.574Z,12.20
2018-03-22T06:43:36.819Z,10.13
2018-03-22T06:46:03.257Z,16.27
2018-03-22T06:48:29.478Z,15.77
2018-03-22T06:50:55.808Z,8.93
2018-03-22T06:53:22.073Z,10.03
2018-03-22T06:55:51.819Z,14.40
2018-03-22T06:58:18.125Z,11.57
2018-03-22T07:00:44.396Z,15.90
2018-03-22T07:03:10.734Z,10.33
2018-03-22T07:05:36.937Z,11.60
2018-03-22T07:08:03.354Z,14.03
2018-03-22T07:10:29.712Z,9.73
2018-03-22T07:12:55.991Z,17.93
2018-03-22T07:15:23.106Z,14.63
2018-03-22T07:17:50.044Z,9.43
2018-03-22T07:20:16.361Z,16.97
2018-03-22T07:22:42.737Z,9.13
2018-03-22T07:25:09.786Z,7.83
2018-03-22T07:27:36.144Z,10.13
2018-03-22T07:30:02.564Z,11.40
2018-03-22T07:32:28.754Z,10.57
2018-03-22T07:34:56.446Z,13.43
2018-03-22T07:37:22.789Z,14.13
2018-03-22T07:39:49.040Z,7.30
2018-03-22T07:42:15.256Z,9.53
2018-03-22T07:44:41.517Z,9.43
2018-03-22T07:47:07.850Z,11.47
2018-03-22T07:49:34.125Z,9.90
2018-03-22T07:52:00.344Z,15.00
2018-03-22T07:54:26.573Z,11.50
2018-03-22T07:56:52.753Z,15.33
2018-03-22T07:59:19.008Z,10.93
2018-03-22T08:01:45.253Z,12.63
2018-03-22T08:04:12.302Z,14.90
2018-03-22T08:06:38.927Z,14.00
2018-03-22T08:09:05.194Z,11.43
2018-03-22T08:11:41.923Z,16.50
2018-03-22T08:14:08.254Z,10.17
2018-03-22T08:16:39.323Z,14.30
2018-03-22T08:19:05.711Z,13.83
2018-03-22T08:21:31.959Z,14.07
2018-03-22T08:23:58.199Z,15.00
2018-03-22T08:26:24.439Z,14.53
2018-03-22T08:28:53.867Z,15.03
2018-03-22T08:31:20.126Z,17.13
2018-03-22T08:33:47.036Z,14.63
2018-03-22T08:36:13.469Z,15.17
2018-03-22T08:38:39.656Z,15.90
2018-03-22T08:41:05.928Z,23.10
2018-03-22T08:43:37.479Z,20.00
2018-03-22T08:46:06.117Z,22.50
2018-03-22T08:48:35.571Z,22.90
2018-03-22T08:51:01.884Z,37.37
2018-03-22T08:53:28.081Z,16.00
2018-03-22T08:55:54.344Z,15.10
2018-03-22T08:58:20.545Z,29.17
2018-03-22T09:00:46.801Z,24.23
2018-03-22T09:03:13.765Z,21.10
2018-03-22T09:05:39.962Z,19.20
2018-03-22T09:08:06.249Z,24.40
2018-03-22T09:10:32.456Z,23.80
2018-03-22T09:12:58.694Z,20.57
2018-03-22T09:15:24.882Z,24.30
2018-03-22T09:17:51.105Z,31.20
2018-03-22T09:20:18.041Z,19.97
2018-03-22T09:22:44.242Z,28.93
2018-03-22T09:25:10.482Z,19.07
2018-03-22T09:27:36.792Z,26.30
2018-03-22T09:30:03.813Z,21.60
2018-03-22T09:32:30.088Z,25.33
2018-03-22T09:34:56.663Z,24.90
2018-03-22T09:37:23.008Z,26.23
2018-03-22T09:39:49.230Z,32.83
2018-03-22T09:42:15.525Z,34.63
2018-03-22T09:44:42.350Z,40.93
2018-03-22T09:47:08.687Z,33.37
2018-03-22T09:49:36.310Z,49.57
2018-03-22T09:52:03.464Z,40.13
2018-03-22T09:54:29.764Z,37.50
2018-03-22T09:56:56.027Z,39.13
2018-03-22T09:59:22.416Z,40.30
2018-03-22T10:01:48.769Z,44.97
2018-03-22T10:04:15.044Z,40.53
2018-03-22T10:06:41.276Z,45.60
2018-03-22T10:09:07.508Z,36.37
2018-03-22T10:11:34.510Z,47.90
2018-03-22T10:14:01.835Z,55.13
2018-03-22T10:16:28.812Z,51.50
2018-03-22T10:18:55.074Z,47.70
2018-03-22T10:21:21.268Z,67.37
2018-03-22T10:23:47.568Z,56.43
2018-03-22T10:26:13.889Z,64.10
2018-03-22T10:28:40.123Z,61.37
2018-03-22T10:31:06.348Z,67.20
2018-03-22T10:33:32.550Z,52.57
2018-03-22T10:35:58.898Z,55.50
2018-03-22T10:38:25.077Z,56.67
2018-03-22T10:40:52.153Z,59.83
2018-03-22T10:43:18.373Z,59.50
2018-03-22T10:45:44.586Z,63.50
2018-03-22T10:48:10.845Z,58.83
2018-03-22T10:50:37.820Z,61.23
2018-03-22T10:53:04.097Z,61.30
2018-03-22T10:55:30.352Z,61.20
2018-03-22T10:57:56.953Z,67.20
2018-03-22T11:00:29.397Z,64.87
2018-03-22T11:02:55.668Z,68.90
2018-03-22T11:05:22.689Z,67.23
2018-03-22T11:07:49.754Z,78.37
2018-03-22T11:10:16.027Z,67.03
2018-03-22T11:12:42.338Z,71.00
2018-03-22T11:15:08.617Z,69.73
2018-03-22T11:17:35.201Z,63.13
2018-03-22T11:20:01.713Z,74.37
2018-03-22T11:22:28.015Z,84.50
2018-03-22T11:24:54.240Z,76.73
2018-03-22T11:27:21.330Z,78.93
2018-03-22T11:29:47.739Z,76.87
2018-03-22T11:32:14.144Z,81.73
2018-03-22T11:34:40.368Z,76.50
2018-03-22T11:37:06.596Z,73.23
2018-03-22T11:39:32.845Z,74.80
2018-03-22T11:41:59.061Z,76.67
2018-03-22T11:44:25.280Z,78.77
2018-03-22T11:46:51.548Z,80.70
2018-03-22T11:49:17.898Z,69.27
2018-03-22T11:51:44.181Z,72.63
2018-03-22T11:54:10.402Z,84.10
2018-03-22T11:56:36.813Z,75.70
2018-03-22T11:59:03.106Z,80.03
2018-03-22T12:01:29.335Z,73.77
2018-03-22T12:03:55.575Z,81.43
2018-03-22T12:06:21.811Z,73.83
2018-03-22T12:08:48.929Z,70.13
2018-03-22T12:11:15.157Z,82.00
2018-03-22T12:13:41.365Z,78.27
2018-03-22T12:16:07.626Z,77.63
2018-03-22T12:18:33.862Z,84.63
2018-03-22T12:21:00.128Z,91.93
2018-03-22T12:23:26.370Z,82.90
2018-03-22T12:25:52.637Z,71.87
2018-03-22T12:28:18.820Z,74.20
2018-03-22T12:30:45.075Z,75.30
2018-03-22T12:33:11.377Z,79.37
2018-03-22T12:35:37.641Z,90.23
2018-03-22T12:38:03.903Z,73.20
2018-03-22T12:40:33.092Z,74.47
2018-03-22T12:42:59.296Z,72.07
2018-03-22T12:45:25.592Z,85.43
2018-03-22T12:47:51.982Z,76.80
2018-03-22T12:50:18.232Z,75.10
2018-03-22T12:52:44.438Z,73.60
2018-03-22T12:55:10.880Z,72.27
2018-03-22T12:57:37.086Z,77.83
2018-03-22T13:00:03.398Z,74.27
2018-03-22T13:02:29.664Z,68.80
2018-03-22T13:04:55.992Z,68.67
2018-03-22T13:07:22.329Z,69.20
2018-03-22T13:09:48.591Z,69.40
2018-03-22T13:12:14.825Z,69.90
2018-03-22T13:14:41.117Z,69.00
2018-03-22T13:17:07.396Z,69.50
2018-03-22T13:19:33.672Z,66.00
2018-03-22T13:22:00.837Z,79.47
2018-03-22T13:24:27.196Z,68.77
2018-03-22T13:26:53.475Z,77.00
2018-03-22T13:29:19.748Z,73.23
2018-03-22T13:31:45.975Z,68.13
2018-03-22T13:34:12.226Z,67.83
2018-03-22T13:36:38.476Z,62.40
2018-03-22T13:39:04.812Z,62.40
2018-03-22T13:41:31.026Z,63.67
2018-03-22T13:43:57.264Z,62.93
2018-03-22T13:46:23.501Z,70.20
2018-03-22T13:48:49.726Z,59.57
2018-03-22T13:51:16.101Z,57.37
2018-03-22T13:53:42.372Z,58.53
2018-03-22T13:56:09.376Z,64.73
2018-03-22T13:58:35.610Z,68.10
2018-03-22T14:01:01.864Z,59.67
2018-03-22T14:03:28.119Z,61.53
2018-03-22T14:05:54.349Z,61.07
2018-03-22T14:08:20.612Z,58.43
2018-03-22T14:10:46.872Z,70.27
2018-03-22T14:13:13.064Z,60.77
2018-03-22T14:15:39.294Z,59.00
2018-03-22T14:18:05.534Z,71.87
2018-03-22T14:20:31.773Z,62.53
2018-03-22T14:22:58.160Z,65.00
2018-03-22T14:25:24.439Z,67.27
2018-03-22T14:27:51.390Z,68.13
2018-03-22T14:30:17.695Z,58.37
2018-03-22T14:32:43.966Z,76.63
2018-03-22T14:35:10.194Z,64.23
2018-03-22T14:37:36.442Z,61.23
2018-03-22T14:40:03.490Z,61.33
2018-03-22T14:42:29.784Z,66.87
2018-03-22T14:44:56.065Z,57.93
2018-03-22T14:47:22.311Z,58.87
2018-03-22T14:49:48.560Z,61.40
2018-03-22T14:52:14.794Z,64.40
2018-03-22T14:54:45.545Z,60.50
2018-03-22T14:57:11.829Z,65.10
2018-03-22T14:59:38.283Z,59.50
2018-03-22T15:02:04.553Z,64.33
2018-03-22T15:04:30.903Z,60.33
2018-03-22T15:06:57.176Z,57.97
2018-03-22T15:09:23.384Z,59.70
2018-03-22T15:11:49.692Z,58.10
2018-03-22T15:14:15.982Z,76.90
2018-03-22T15:16:42.405Z,59.33
2018-03-22T15:19:08.678Z,58.30
2018-03-22T15:21:34.929Z,62.33
2018-03-22T15:24:01.210Z,55.17
2018-03-22T15:26:27.533Z,56.87
2018-03-22T15:28:53.767Z,57.33
2018-03-22T15:31:20.014Z,112.00
2018-03-22T15:33:47.065Z,51.60
2018-03-22T15:36:14.071Z,53.17
2018-03-22T15:38:40.291Z,54.30
2018-03-22T15:41:07.298Z,54.37
2018-03-22T15:43:33.573Z,46.67
2018-03-22T15:45:59.849Z,52.20
2018-03-22T15:48:26.124Z,48.90
2018-03-22T15:50:52.369Z,58.80
2018-03-22T15:53:18.604Z,49.13
2018-03-22T15:55:45.017Z,51.30
2018-03-22T15:58:11.277Z,52.53
2018-03-22T16:00:37.579Z,46.17
2018-03-22T16:03:04.006Z,46.00
2018-03-22T16:05:30.413Z,60.20
2018-03-22T16:07:56.819Z,49.17
2018-03-22T16:10:23.105Z,48.03
2018-03-22T16:12:52.094Z,66.20
2018-03-22T16:15:18.922Z,45.10
2018-03-22T16:17:45.979Z,43.47
2018-03-22T16:20:12.938Z,112.13
2018-03-22T16:22:39.163Z,44.07
2018-03-22T16:25:05.433Z,40.67
2018-03-22T16:27:31.698Z,44.70
2018-03-22T16:29:58.036Z,46.67
2018-03-22T16:32:24.303Z,42.37
2018-03-22T16:34:50.525Z,47.80
2018-03-22T16:37:17.023Z,41.73
2018-03-22T16:39:44.281Z,41.03
2018-03-22T16:42:10.480Z,47.93
2018-03-22T16:44:37.481Z,43.00
2018-03-22T16:47:03.714Z,44.47
2018-03-22T16:49:30.147Z,44.77
2018-03-22T16:51:56.499Z,41.33
2018-03-22T16:54:22.808Z,41.43
2018-03-22T16:56:49.138Z,43.50
2018-03-22T16:59:16.499Z,42.00
2018-03-22T17:01:42.754Z,41.10
2018-03-22T17:04:09.049Z,40.50
2018-03-22T17:06:35.297Z,40.13
2018-03-22T17:09:01.852Z,41.27
2018-03-22T17:11:28.077Z,42.10
2018-03-22T17:13:54.305Z,42.47
2018-03-22T17:16:20.591Z,45.10
2018-03-22T17:18:47.553Z,45.90
2018-03-22T17:21:13.798Z,42.30
2018-03-22T17:23:40.147Z,43.43
2018-03-22T17:26:06.438Z,48.00
2018-03-22T17:28:32.675Z,47.97
2018-03-22T17:30:59.026Z,43.20
2018-03-22T17:33:25.251Z,43.57
2018-03-22T17:35:51.535Z,49.77
2018-03-22T17:38:18.489Z,42.77
2018-03-22T17:40:44.792Z,49.73
2018-03-22T17:43:11.084Z,49.37
2018-03-22T17:45:38.129Z,47.63
2018-03-22T17:48:04.466Z,48.77
2018-03-22T17:50:30.668Z,46.67
2018-03-22T17:52:56.969Z,55.77
2018-03-22T17:55:23.181Z,50.00
2018-03-22T17:57:49.470Z,46.93
2018-03-22T18:00:15.959Z,51.47
2018-03-22T18:02:42.259Z,47.40
2018-03-22T18:05:08.506Z,55.03
2018-03-22T18:07:35.761Z,48.07
2018-03-22T18:10:02.721Z,49.90
2018-03-22T18:12:29.710Z,51.70
2018-03-22T18:14:55.936Z,46.93
2018-03-22T18:17:22.218Z,60.53
2018-03-22T18:19:48.503Z,58.57
2018-03-22T18:22:14.751Z,54.80
2018-03-22T18:24:41.034Z,55.47
2018-03-22T18:27:07.232Z,62.53
2018-03-22T18:29:33.466Z,57.87
2018-03-22T18:31:59.733Z,63.70
2018-03-22T18:34:25.996Z,58.03
2018-03-22T18:36:52.262Z,54.77
2018-03-22T18:39:18.479Z,58.80
2018-03-22T18:41:44.766Z,62.63
2018-03-22T18:44:11.913Z,60.73
2018-03-22T18:46:38.215Z,56.70
2018-03-22T18:49:04.450Z,61.53
2018-03-22T18:51:30.703Z,60.93
2018-03-22T18:53:57.010Z,61.90
2018-03-22T18:56:23.282Z,64.60
2018-03-22T18:58:49.508Z,63.87
2018-03-22T19:01:15.833Z,58.00
2018-03-22T19:03:42.128Z,60.90
2018-03-22T19:06:08.316Z,64.30
2018-03-22T19:08:35.253Z,60.37
2018-03-22T19:11:01.544Z,60.43
2018-03-22T19:13:27.848Z,60.33
2018-03-22T19:15:54.820Z,56.87
2018-03-22T19:18:21.117Z,59.83
2018-03-22T19:20:47.310Z,57.70
2018-03-22T19:23:13.681Z,51.70
2018-03-22T19:25:40.301Z,58.47
2018-03-22T19:28:06.557Z,60.00
2018-03-22T19:30:32.857Z,60.33
2018-03-22T19:32:59.093Z,62.67
2018-03-22T19:35:25.389Z,61.73
2018-03-22T19:37:51.623Z,61.93
2018-03-22T19:40:17.881Z,65.63
2018-03-22T19:42:44.128Z,73.70
2018-03-22T19:45:10.339Z,69.83
2018-03-22T19:47:37.664Z,82.23
2018-03-22T19:50:03.953Z,72.83
2018-03-22T19:52:30.145Z,68.80
2018-03-22T19:54:56.408Z,72.53
2018-03-22T19:57:23.422Z,72.47
2018-03-22T19:59:49.889Z,70.57
2018-03-22T20:02:16.135Z,80.70
2018-03-22T20:04:42.483Z,72.10
2018-03-22T20:07:08.918Z,80.43
2018-03-22T20:09:35.237Z,68.10
2018-03-22T20:12:01.543Z,86.67
2018-03-22T20:14:27.820Z,78.60
2018-03-22T20:16:54.113Z,83.97
2018-03-22T20:19:21.165Z,73.80
2018-03-22T20:21:48.213Z,82.07
2018-03-22T20:24:14.532Z,73.10
2018-03-22T20:26:40.772Z,77.33
2018-03-22T20:29:07.052Z,75.20
2018-03-22T20:31:33.322Z,71.23
2018-03-22T20:33:59.648Z,68.10
2018-03-22T20:36:25.933Z,75.20
2018-03-22T20:38:52.171Z,73.63
2018-03-22T20:41:18.422Z,82.33
2018-03-22T20:43:44.943Z,75.00
2018-03-22T20:46:11.460Z,76.80
2018-03-22T20:48:38.464Z,77.10
2018-03-22T20:51:05.033Z,74.93
2018-03-22T20:53:31.315Z,77.40
2018-03-22T20:55:58.432Z,84.77
2018-03-22T20:58:27.595Z,76.30
2018-03-22T21:00:54.044Z,84.57
2018-03-22T21:03:20.359Z,73.10
2018-03-22T21:05:46.680Z,97.73
2018-03-22T21:08:14.144Z,82.57
2018-03-22T21:10:40.389Z,82.40
2018-03-22T21:13:06.588Z,89.00
2018-03-22T21:15:32.818Z,76.17
2018-03-22T21:17:59.961Z,77.20
2018-03-22T21:20:26.237Z,85.83
2018-03-22T21:22:52.606Z,87.73
2018-03-22T21:25:18.897Z,88.83
2018-03-22T21:27:45.185Z,72.73
2018-03-22T21:30:11.410Z,75.73
2018-03-22T21:32:38.153Z,87.07
2018-03-22T21:35:05.268Z,73.07
2018-03-22T21:37:31.548Z,92.07
2018-03-22T21:39:57.814Z,78.90
2018-03-22T21:42:24.305Z,78.13
2018-03-22T21:44:50.518Z,79.53
2018-03-22T21:47:25.916Z,81.40
2018-03-22T21:49:52.165Z,84.57
2018-03-22T21:52:30.855Z,94.33
2018-03-22T21:54:57.522Z,86.33
2018-03-22T21:57:27.691Z,89.43
2018-03-22T21:59:55.417Z,91.00
2018-03-22T22:02:25.153Z,93.60
2018-03-22T22:04:54.937Z,93.47
2018-03-22T22:07:22.315Z,83.90
2018-03-22T22:09:48.590Z,94.40
2018-03-22T22:12:14.899Z,96.80
2018-03-22T22:14:41.360Z,103.40
2018-03-22T22:17:07.729Z,96.83
2018-03-22T22:19:33.944Z,93.80
2018-03-22T22:22:00.155Z,86.97
2018-03-22T22:24:27.100Z,101.90
2018-03-22T22:26:54.044Z,94.50
2018-03-22T22:29:20.267Z,87.43
2018-03-22T22:31:46.489Z,87.80
2018-03-22T22:34:12.784Z,97.70
2018-03-22T22:36:41.345Z,90.23
2018-03-22T22:39:07.722Z,88.50
2018-03-22T22:41:33.970Z,93.80
2018-03-22T22:44:00.295Z,94.00
2018-03-22T22:46:26.568Z,95.53
2018-03-22T22:48:52.790Z,91.60
2018-03-22T22:51:19.027Z,96.53
2018-03-22T22:53:45.576Z,82.03
2018-03-22T22:56:13.690Z,86.07
2018-03-22T22:58:41.834Z,86.53
2018-03-22T23:01:08.731Z,97.43
2018-03-22T23:03:35.760Z,91.37
2018-03-22T23:06:02.068Z,87.00
2018-03-22T23:08:28.301Z,85.87
2018-03-22T23:10:54.571Z,90.47
2018-03-22T23:13:20.776Z,89.60
2018-03-22T23:15:47.112Z,76.57
2018-03-22T23:18:13.332Z,93.13
2018-03-22T23:20:40.276Z,94.30
2018-03-22T23:23:06.487Z,93.60
2018-03-22T23:25:32.818Z,95.50
2018-03-22T23:27:58.999Z,95.47
2018-03-22T23:30:25.226Z,89.07
2018-03-22T23:32:51.410Z,96.80
2018-03-22T23:35:17.688Z,95.27
2018-03-22T23:37:44.002Z,103.20
2018-03-22T23:40:10.223Z,97.37
2018-03-22T23:42:36.449Z,98.27
2018-03-22T23:45:02.773Z,101.80
2018-03-22T23:47:29.019Z,100.20
2018-03-22T23:49:55.275Z,93.50
2018-03-22T23:52:21.550Z,95.07
2018-03-22T23:54:48.145Z,105.63
2018-03-22T23:57:14.398Z,107.00
2018-03-22T23:59:40.606Z,104.70
